Time;durP1;ratioP1;P1;durP2;ratioP2;P2;SDS_P1;SDS_P2;PMS_P1;PMS_P2;Temp;Humidity;BMP_temperature;BMP_pressure;BME280_temperature;BME280_humidity;BME280_pressure;Samples;Min_cycle;Max_cycle;Signal;HPM_P1;HPM_P2
2022/01/02 00:00:19;;;;;;;0.30;0.30;;;10.70;99.90;;;;;;5107393;28;20119;-85
2022/01/02 00:02:51;;;;;;;1.75;0.65;;;10.70;99.90;;;;;;5115197;28;20051;-94
2022/01/02 00:05:20;;;;;;;1.55;1.50;;;10.80;99.90;;;;;;5115094;28;20130;-93
2022/01/02 00:08:04;;;;;;;1.65;1.02;;;10.70;99.90;;;;;;5115596;28;20036;-94
2022/01/02 00:10:48;;;;;;;0.57;0.43;;;10.70;99.90;;;;;;5115281;28;20063;-93
2022/01/02 00:13:31;;;;;;;0.50;0.45;;;10.70;99.90;;;;;;5103897;28;20104;-94
2022/01/02 00:16:04;;;;;;;2.30;1.05;;;10.70;99.90;;;;;;5109871;27;20080;-94
2022/01/02 00:18:34;;;;;;;0.98;0.98;;;10.80;99.90;;;;;;5136300;27;20403;-92
2022/01/02 00:21:03;;;;;;;1.05;1.05;;;10.70;99.90;;;;;;5136200;27;20092;-94
2022/01/02 00:23:33;;;;;;;1.83;0.55;;;10.70;99.90;;;;;;5119156;27;20168;-94
2022/01/02 00:26:04;;;;;;;1.02;0.77;;;10.70;99.90;;;;;;5137041;27;20050;-93
2022/01/02 00:28:32;;;;;;;1.73;1.73;;;10.70;99.90;;;;;;5135605;27;20387;-93
2022/01/02 00:30:58;;;;;;;0.70;0.70;;;10.60;99.90;;;;;;5134562;27;20035;-94
2022/01/02 00:33:25;;;;;;;1.08;0.60;;;10.60;99.90;;;;;;5117036;27;20047;-94
2022/01/02 00:35:51;;;;;;;0.85;0.80;;;10.70;99.90;;;;;;5135190;27;20031;-94
2022/01/02 00:38:22;;;;;;;2.17;1.23;;;10.50;99.90;;;;;;5134991;27;20035;-94
2022/01/02 00:40:52;;;;;;;1.00;0.82;;;10.60;99.90;;;;;;5116931;28;20058;-94
2022/01/02 00:43:46;;;;;;;0.40;0.40;;;10.60;99.90;;;;;;5121813;28;20126;-87
2022/01/02 00:46:13;;;;;;;2.40;1.90;;;10.60;99.90;;;;;;5011161;28;20077;-87
2022/01/02 00:48:42;;;;;;;1.77;1.67;;;10.60;99.90;;;;;;5010783;28;20089;-88
2022/01/02 00:51:35;;;;;;;1.48;0.65;;;10.60;99.90;;;;;;4994590;28;20057;-85
2022/01/02 00:54:02;;;;;;;5.88;1.60;;;10.50;99.90;;;;;;4994604;28;20076;-87
2022/01/02 00:56:29;;;;;;;1.38;0.95;;;10.60;99.90;;;;;;4994420;28;20062;-85
2022/01/02 00:59:00;;;;;;;7.22;0.93;;;10.60;99.90;;;;;;4994245;28;20049;-86
2022/01/02 01:01:33;;;;;;;7.80;5.72;;;10.60;99.90;;;;;;4994125;28;20065;-85
2022/01/02 01:04:02;;;;;;;3.53;3.00;;;10.50;99.90;;;;;;5010726;28;20054;-84
2022/01/02 01:06:32;;;;;;;1.55;1.20;;;10.50;99.90;;;;;;4994316;28;20556;-87
2022/01/02 01:09:01;;;;;;;2.03;1.15;;;10.50;99.90;;;;;;4994777;28;20466;-88
2022/01/02 01:11:28;;;;;;;0.80;0.80;;;10.50;99.90;;;;;;5011098;28;20046;-88
2022/01/02 01:13:54;;;;;;;5.15;4.68;;;10.50;99.90;;;;;;5037925;28;20075;-84
2022/01/02 01:16:21;;;;;;;0.65;0.13;;;10.50;99.90;;;;;;5064248;28;20660;-80
2022/01/02 01:18:47;;;;;;;1.05;1.05;;;10.50;99.90;;;;;;5061026;28;20528;-86
2022/01/02 01:21:13;;;;;;;0.80;0.80;;;10.50;99.90;;;;;;5053867;28;20075;-92
2022/01/02 01:23:40;;;;;;;0.45;0.45;;;10.60;99.90;;;;;;5128020;27;20051;-92
2022/01/02 01:26:08;;;;;;;0.70;0.65;;;10.50;99.90;;;;;;5136663;27;20529;-92
2022/01/02 01:28:33;;;;;;;0.50;0.50;;;10.50;99.90;;;;;;5136612;27;20081;-91
2022/01/02 01:30:59;;;;;;;1.27;1.13;;;10.60;99.90;;;;;;5155170;27;20043;-92
2022/01/02 01:33:25;;;;;;;0.77;0.70;;;10.50;99.90;;;;;;5155512;27;20078;-92
2022/01/02 01:35:50;;;;;;;1.77;1.20;;;10.60;99.90;;;;;;5136894;27;20047;-89
2022/01/02 01:38:16;;;;;;;2.65;0.60;;;10.60;99.90;;;;;;5154178;27;20490;-87
2022/01/02 01:41:09;;;;;;;0.73;0.73;;;10.60;99.90;;;;;;5135369;27;20043;-87
2022/01/02 01:43:53;;;;;;;1.58;1.48;;;10.70;99.90;;;;;;5053292;28;20060;-87
2022/01/02 01:46:19;;;;;;;22.23;6.13;;;10.50;99.90;;;;;;5069896;28;20500;-88
2022/01/02 01:48:55;;;;;;;0.30;0.30;;;10.50;99.90;;;;;;5074272;28;20063;-90
2022/01/02 01:51:21;;;;;;;5.35;1.42;;;10.50;99.90;;;;;;5074371;28;20497;-88
2022/01/02 01:53:46;;;;;;;1.48;0.90;;;10.50;99.90;;;;;;5057564;28;20057;-88
2022/01/02 01:56:12;;;;;;;1.50;1.00;;;10.60;99.90;;;;;;5057684;28;20054;-90
2022/01/02 01:58:38;;;;;;;2.15;2.03;;;10.50;99.90;;;;;;5041177;28;20482;-91
2022/01/02 02:01:03;;;;;;;1.38;1.05;;;10.50;99.90;;;;;;5057002;28;20045;-89
2022/01/02 02:03:29;;;;;;;0.38;0.38;;;10.50;99.90;;;;;;5057571;28;20098;-89
2022/01/02 02:05:55;;;;;;;0.65;0.65;;;10.60;99.90;;;;;;5057739;28;20054;-85
2022/01/02 02:08:25;;;;;;;1.00;1.00;;;10.50;99.90;;;;;;5040689;28;20052;-90
2022/01/02 02:10:57;;;;;;;0.30;0.30;;;10.50;99.90;;;;;;5057617;28;20131;-92
2022/01/02 02:13:23;;;;;;;0.90;0.90;;;10.50;99.90;;;;;;5057442;28;20512;-92
2022/01/02 02:15:51;;;;;;;1.85;0.73;;;10.50;99.90;;;;;;5057142;28;20128;-91
2022/01/02 02:18:17;;;;;;;1.73;1.58;;;10.60;99.90;;;;;;5074188;28;20036;-92
2022/01/02 02:20:43;;;;;;;0.85;0.85;;;10.50;99.90;;;;;;5123079;27;20432;-92
2022/01/02 02:23:13;;;;;;;1.85;1.73;;;10.50;99.90;;;;;;5122860;27;20050;-92
2022/01/02 02:25:39;;;;;;;0.82;0.82;;;10.50;99.90;;;;;;5158922;27;20043;-92
2022/01/02 02:28:07;;;;;;;0.47;0.45;;;10.50;99.90;;;;;;5159460;27;20049;-90
2022/01/02 02:30:35;;;;;;;1.25;1.10;;;10.50;99.90;;;;;;5139003;27;20053;-91
2022/01/02 02:33:03;;;;;;;0.82;0.82;;;10.50;99.90;;;;;;5157816;27;20122;-91
2022/01/02 02:35:30;;;;;;;1.35;1.25;;;10.50;99.90;;;;;;5157719;27;20046;-90
2022/01/02 02:37:57;;;;;;;5.75;1.10;;;10.50;99.90;;;;;;5139693;27;20047;-90
2022/01/02 02:40:27;;;;;;;0.98;0.85;;;10.50;99.90;;;;;;5157407;27;20448;-92
2022/01/02 02:43:04;;;;;;;0.93;0.68;;;10.50;99.90;;;;;;5157518;27;20106;-86
2022/01/02 02:51:07;;;;;;;2.88;0.63;;;10.40;99.90;;;;;;5157380;27;20072;-90
2022/01/02 02:53:36;;;;;;;1.85;0.80;;;10.50;99.90;;;;;;5137827;27;20050;-90
2022/01/02 02:56:12;;;;;;;0.38;0.38;;;10.50;99.90;;;;;;5157412;27;20057;-90
2022/01/02 02:58:41;;;;;;;1.50;1.08;;;10.50;99.90;;;;;;5138953;27;20042;-91
2022/01/02 03:01:12;;;;;;;4.50;0.88;;;10.50;99.90;;;;;;5121497;27;20053;-90
2022/01/02 03:03:39;;;;;;;0.90;0.50;;;10.50;99.90;;;;;;5157230;27;20042;-88
2022/01/02 03:06:05;;;;;;;0.50;0.50;;;10.50;99.90;;;;;;5138861;27;20049;-91
2022/01/02 03:08:33;;;;;;;0.68;0.40;;;10.50;99.90;;;;;;5156977;27;20043;-91
2022/01/02 03:10:59;;;;;;;4.97;1.20;;;10.50;99.90;;;;;;5138519;27;20050;-91
2022/01/02 03:13:25;;;;;;;3.75;1.23;;;10.50;99.90;;;;;;5138643;27;20099;-90
2022/01/02 03:15:51;;;;;;;1.17;1.15;;;10.50;99.90;;;;;;5138515;27;20074;-91
2022/01/02 03:18:16;;;;;;;1.85;1.75;;;10.50;99.90;;;;;;5138361;27;20038;-91
2022/01/02 03:20:42;;;;;;;2.60;1.23;;;10.60;99.90;;;;;;5138501;27;20062;-92
2022/01/02 03:23:08;;;;;;;0.60;0.50;;;10.50;99.90;;;;;;5120995;27;20131;-91
2022/01/02 03:25:33;;;;;;;0.68;0.65;;;10.50;99.90;;;;;;5156710;27;20050;-91
2022/01/02 03:27:59;;;;;;;2.13;0.68;;;10.50;99.90;;;;;;5121270;27;20039;-88
2022/01/02 03:30:25;;;;;;;0.47;0.47;;;10.50;99.90;;;;;;5157395;27;20038;-84
2022/01/02 03:32:51;;;;;;;0.25;0.25;;;10.50;99.90;;;;;;5157092;27;20050;-87
2022/01/02 03:35:16;;;;;;;0.30;0.30;;;10.50;99.90;;;;;;5138140;27;20035;-88
2022/01/02 03:37:43;;;;;;;2.70;0.65;;;10.50;99.90;;;;;;5156817;27;20417;-88
2022/01/02 03:40:10;;;;;;;2.03;0.82;;;10.50;99.90;;;;;;5156131;27;20078;-88
2022/01/02 03:42:36;;;;;;;4.32;2.72;;;10.50;99.90;;;;;;5138421;27;20068;-89
2022/01/02 03:45:03;;;;;;;2.38;0.70;;;10.50;99.90;;;;;;5156305;27;20470;-87
2022/01/02 03:47:29;;;;;;;1.95;0.80;;;10.60;99.90;;;;;;5156550;27;20034;-88
2022/01/02 03:49:57;;;;;;;7.97;1.23;;;10.50;99.90;;;;;;5137802;27;20072;-88
2022/01/02 03:52:24;;;;;;;1.35;0.77;;;10.50;99.90;;;;;;5170883;27;20038;-78
2022/01/02 03:54:50;;;;;;;0.30;0.30;;;10.60;99.90;;;;;;5117235;27;20065;-88
2022/01/02 03:57:16;;;;;;;1.05;0.55;;;10.50;99.90;;;;;;5134747;27;20479;-89
2022/01/02 03:59:41;;;;;;;0.40;0.40;;;10.60;99.90;;;;;;5134407;27;20035;-87
2022/01/02 04:02:07;;;;;;;0.82;0.82;;;10.60;99.90;;;;;;5135109;27;20058;-88
2022/01/02 04:04:33;;;;;;;1.35;1.27;;;10.70;99.90;;;;;;5116081;27;20039;-88
2022/01/02 04:06:58;;;;;;;0.65;0.65;;;10.60;99.90;;;;;;5082413;27;20099;-84
2022/01/02 04:09:24;;;;;;;1.15;1.15;;;10.60;99.90;;;;;;5135054;27;20070;-87
2022/01/02 04:11:50;;;;;;;1.35;1.35;;;10.60;99.90;;;;;;5119478;27;20075;-87
2022/01/02 04:14:15;;;;;;;0.60;0.60;;;10.60;99.90;;;;;;5138294;27;20039;-86
2022/01/02 04:16:41;;;;;;;2.40;0.43;;;10.60;99.90;;;;;;5134511;27;20047;-87
2022/01/02 04:19:07;;;;;;;0.63;0.63;;;10.60;99.90;;;;;;5134324;27;20042;-86
2022/01/02 04:21:32;;;;;;;1.10;1.05;;;10.60;99.90;;;;;;5134237;27;20039;-86
2022/01/02 04:23:58;;;;;;;0.65;0.65;;;10.60;99.90;;;;;;5113005;27;20031;-87
2022/01/02 04:26:24;;;;;;;0.75;0.75;;;10.60;99.90;;;;;;5113696;28;20476;-85
2022/01/02 04:28:49;;;;;;;1.13;0.85;;;10.60;99.90;;;;;;5113743;28;20040;-86
2022/01/02 04:31:15;;;;;;;3.30;1.15;;;10.60;99.90;;;;;;5113713;28;20086;-86
2022/01/02 04:33:41;;;;;;;3.38;0.95;;;10.60;99.90;;;;;;5094997;28;20120;-86
2022/01/02 04:36:07;;;;;;;1.05;1.05;;;10.60;99.90;;;;;;5094769;28;20457;-85
2022/01/02 04:38:35;;;;;;;1.00;1.00;;;10.60;99.90;;;;;;5078337;28;20043;-84
2022/01/02 04:41:00;;;;;;;1.55;1.45;;;10.60;99.90;;;;;;5113461;28;20039;-85
2022/01/02 04:43:26;;;;;;;0.80;0.52;;;10.50;99.90;;;;;;5113623;28;20466;-86
2022/01/02 04:45:52;;;;;;;0.82;0.82;;;10.60;99.90;;;;;;5113629;28;20052;-86
2022/01/02 04:48:17;;;;;;;5.70;0.60;;;10.60;99.90;;;;;;5113237;28;20086;-84
2022/01/02 04:50:43;;;;;;;0.85;0.85;;;10.60;99.90;;;;;;5094903;28;20050;-84
2022/01/02 04:53:09;;;;;;;1.10;1.00;;;10.50;99.90;;;;;;5094907;28;20048;-84
2022/01/02 04:55:35;;;;;;;1.27;1.27;;;10.60;99.90;;;;;;5113366;28;20042;-85
2022/01/02 04:58:01;;;;;;;0.32;0.32;;;10.60;99.90;;;;;;5113154;28;20476;-84
2022/01/02 05:00:26;;;;;;;1.13;1.02;;;10.60;99.90;;;;;;5113306;28;20112;-85
2022/01/02 05:02:52;;;;;;;0.82;0.80;;;10.60;99.90;;;;;;5113490;28;20221;-85
2022/01/02 05:05:19;;;;;;;4.07;2.80;;;10.60;99.90;;;;;;5113876;28;20107;-86
2022/01/02 05:07:45;;;;;;;1.13;0.90;;;10.60;99.90;;;;;;5115888;28;20077;-85
2022/01/02 05:10:11;;;;;;;3.58;2.58;;;10.60;99.90;;;;;;5113373;28;20044;-85
2022/01/02 05:12:37;;;;;;;0.40;0.40;;;10.60;99.90;;;;;;5095038;28;20044;-84
2022/01/02 05:15:04;;;;;;;0.43;0.43;;;10.60;99.90;;;;;;5113057;28;20058;-84
2022/01/02 05:17:29;;;;;;;4.03;1.92;;;10.60;99.90;;;;;;5116581;28;20047;-86
2022/01/02 05:19:55;;;;;;;1.10;0.88;;;10.60;99.90;;;;;;5116762;28;20040;-83
2022/01/02 05:22:21;;;;;;;0.90;0.88;;;10.70;99.90;;;;;;5099112;28;20047;-85
2022/01/02 05:24:47;;;;;;;0.60;0.60;;;10.60;99.90;;;;;;5117237;28;20043;-86
2022/01/02 05:27:13;;;;;;;6.05;3.42;;;10.60;99.90;;;;;;5117126;28;20040;-85
2022/01/02 05:29:39;;;;;;;7.32;2.60;;;10.60;99.90;;;;;;5117212;28;20032;-85
2022/01/02 05:32:04;;;;;;;2.33;2.20;;;10.60;99.90;;;;;;5116979;28;20467;-85
2022/01/02 05:34:30;;;;;;;3.80;2.88;;;10.70;99.90;;;;;;5116606;28;20463;-85
2022/01/02 05:36:56;;;;;;;2.03;1.90;;;10.70;99.90;;;;;;5116903;28;20118;-84
2022/01/02 05:39:22;;;;;;;2.17;2.08;;;10.70;99.90;;;;;;5116663;28;20049;-85
2022/01/02 05:41:49;;;;;;;2.47;2.20;;;10.80;99.90;;;;;;5116796;28;20043;-85
2022/01/02 05:44:15;;;;;;;2.22;1.98;;;10.80;99.90;;;;;;5098403;28;20101;-85
2022/01/02 05:46:42;;;;;;;1.95;1.85;;;10.80;99.90;;;;;;5098299;28;20511;-83
2022/01/02 05:49:08;;;;;;;3.05;1.33;;;10.80;99.90;;;;;;5098341;28;20047;-83
2022/01/02 05:51:34;;;;;;;9.10;1.20;;;10.80;99.90;;;;;;5116603;28;20047;-83
2022/01/02 05:54:00;;;;;;;0.57;0.57;;;10.80;99.90;;;;;;5098068;28;20047;-83
2022/01/02 05:56:25;;;;;;;1.45;0.93;;;10.80;99.90;;;;;;5098230;28;20134;-82
2022/01/02 05:58:51;;;;;;;0.90;0.90;;;10.80;99.90;;;;;;5098414;28;20484;-82
2022/01/02 06:01:17;;;;;;;3.15;0.65;;;10.80;99.90;;;;;;5098989;28;20143;-83
2022/01/02 06:03:42;;;;;;;0.35;0.35;;;10.80;99.90;;;;;;5118158;28;20051;-83
2022/01/02 06:06:08;;;;;;;0.47;0.30;;;10.80;99.90;;;;;;5080861;28;20046;-84
2022/01/02 06:08:34;;;;;;;0.93;0.25;;;10.90;99.90;;;;;;5116349;28;20036;-83
2022/01/02 06:10:59;;;;;;;2.00;0.80;;;10.90;99.90;;;;;;5097672;28;20096;-85
2022/01/02 06:13:25;;;;;;;0.20;0.20;;;11.00;99.90;;;;;;5097736;28;20096;-79
2022/01/02 06:15:51;;;;;;;0.50;0.50;;;11.10;99.90;;;;;;5081934;28;20048;-85
2022/01/02 06:18:16;;;;;;;0.82;0.82;;;11.10;99.90;;;;;;5115884;28;20429;-84
2022/01/02 06:20:42;;;;;;;0.55;0.55;;;11.10;99.90;;;;;;5097502;28;20058;-84
2022/01/02 06:23:08;;;;;;;0.95;0.95;;;11.20;99.90;;;;;;5097557;28;20051;-85
2022/01/02 06:25:33;;;;;;;0.85;0.85;;;11.20;99.90;;;;;;5097809;28;20043;-86
2022/01/02 06:28:00;;;;;;;1.35;1.25;;;11.30;99.90;;;;;;5115859;28;20051;-85
2022/01/02 06:30:26;;;;;;;15.15;3.83;;;11.30;99.90;;;;;;5097789;28;20039;-85
2022/01/02 06:32:55;;;;;;;0.25;0.25;;;11.30;99.90;;;;;;5080713;28;20043;-87
2022/01/02 06:35:29;;;;;;;1.30;1.30;;;11.30;99.90;;;;;;5080716;28;20499;-85
2022/01/02 06:37:55;;;;;;;1.13;1.08;;;11.40;99.90;;;;;;5097383;28;20520;-87
2022/01/02 06:40:22;;;;;;;0.75;0.52;;;11.40;99.90;;;;;;5115785;28;20044;-85
2022/01/02 06:42:48;;;;;;;1.58;1.48;;;11.40;99.90;;;;;;5097137;28;20035;-86
2022/01/02 06:45:14;;;;;;;0.70;0.70;;;11.40;99.90;;;;;;5115805;28;20050;-86
2022/01/02 06:47:40;;;;;;;1.13;0.75;;;11.40;99.90;;;;;;5097621;28;20383;-87
2022/01/02 06:50:07;;;;;;;2.20;0.80;;;11.50;99.90;;;;;;5097048;28;20044;-86
2022/01/02 06:52:33;;;;;;;0.20;0.20;;;11.50;99.90;;;;;;5115116;28;20073;-85
2022/01/02 06:54:58;;;;;;;0.30;0.30;;;11.50;99.90;;;;;;5115555;28;20043;-86
2022/01/02 06:57:24;;;;;;;0.38;0.38;;;11.50;99.90;;;;;;5115610;28;20036;-86
2022/01/02 06:59:50;;;;;;;0.35;0.32;;;11.50;99.90;;;;;;5115560;28;20039;-84
2022/01/02 07:02:17;;;;;;;0.30;0.30;;;11.60;99.90;;;;;;5097412;28;20499;-86
2022/01/02 07:04:43;;;;;;;1.15;1.00;;;11.60;99.90;;;;;;5096920;28;20059;-86
2022/01/02 07:07:08;;;;;;;0.75;0.75;;;11.60;99.90;;;;;;5097112;28;20444;-87
2022/01/02 07:09:34;;;;;;;1.27;1.17;;;11.70;99.90;;;;;;5096959;28;20108;-86
2022/01/02 07:12:00;;;;;;;1.67;1.58;;;11.60;99.90;;;;;;5097479;28;20035;-85
2022/01/02 07:14:27;;;;;;;14.73;2.90;;;11.60;99.90;;;;;;5115219;28;20357;-86
2022/01/02 07:16:57;;;;;;;4.25;3.42;;;11.50;99.90;;;;;;5114821;28;20130;-87
2022/01/02 07:19:22;;;;;;;2.30;1.92;;;11.60;99.90;;;;;;5115019;28;20043;-87
2022/01/02 07:21:49;;;;;;;3.63;2.33;;;11.60;99.90;;;;;;5114563;28;20396;-86
2022/01/02 07:24:15;;;;;;;2.30;1.73;;;11.60;99.90;;;;;;5114624;28;20051;-86
2022/01/02 07:26:41;;;;;;;2.15;1.75;;;11.50;99.90;;;;;;5096673;28;20045;-86
2022/01/02 07:29:06;;;;;;;0.98;0.82;;;11.40;99.90;;;;;;5114841;28;20043;-85
2022/01/02 07:31:32;;;;;;;1.42;1.38;;;11.40;99.90;;;;;;5114772;28;20397;-86
2022/01/02 07:33:58;;;;;;;0.70;0.70;;;11.40;99.90;;;;;;5114726;28;20039;-87
2022/01/02 07:36:23;;;;;;;0.68;0.68;;;11.40;99.90;;;;;;5096195;28;20043;-87
2022/01/02 07:38:49;;;;;;;2.50;2.40;;;11.30;99.90;;;;;;5105948;28;20043;-86
2022/01/02 07:41:15;;;;;;;4.20;2.63;;;11.30;99.90;;;;;;5114419;28;20091;-87
2022/01/02 07:43:41;;;;;;;0.75;0.75;;;11.30;99.90;;;;;;5114386;28;20093;-87
2022/01/02 07:46:06;;;;;;;2.53;0.50;;;11.20;99.90;;;;;;5114549;28;20050;-87
2022/01/02 07:48:32;;;;;;;2.47;1.98;;;11.20;99.90;;;;;;5115127;28;20044;-88
2022/01/02 07:50:58;;;;;;;7.95;3.92;;;11.20;99.90;;;;;;5081990;28;20450;-87
2022/01/02 07:53:24;;;;;;;2.35;2.15;;;11.20;99.90;;;;;;5096973;28;20039;-86
2022/01/02 07:55:49;;;;;;;2.50;2.30;;;11.20;99.90;;;;;;5095838;28;20487;-86
2022/01/02 07:58:15;;;;;;;1.67;1.58;;;11.20;99.90;;;;;;5095808;28;20039;-87
2022/01/02 08:00:41;;;;;;;6.80;3.25;;;11.10;99.90;;;;;;5113786;28;20047;-86
2022/01/02 08:03:08;;;;;;;0.32;0.32;;;11.20;99.90;;;;;;5095713;28;20404;-85
2022/01/02 08:05:33;;;;;;;0.82;0.82;;;11.20;99.90;;;;;;5095680;28;20476;-87
2022/01/02 08:07:59;;;;;;;1.08;1.00;;;11.20;99.90;;;;;;5095962;28;20092;-87
2022/01/02 08:10:26;;;;;;;0.85;0.85;;;11.20;99.90;;;;;;5095732;28;20097;-84
2022/01/02 08:12:52;;;;;;;3.92;2.97;;;11.20;99.90;;;;;;5113950;28;20040;-87
2022/01/02 08:15:18;;;;;;;2.85;2.35;;;11.30;99.90;;;;;;5113574;28;20075;-86
2022/01/02 08:17:44;;;;;;;1.48;1.38;;;11.20;99.90;;;;;;5095632;28;20369;-86
2022/01/02 08:20:10;;;;;;;0.63;0.63;;;11.20;99.90;;;;;;5113647;28;20036;-85
2022/01/02 08:22:35;;;;;;;1.88;1.77;;;11.20;99.90;;;;;;5113863;28;20039;-86
2022/01/02 08:25:03;;;;;;;1.67;1.58;;;11.20;99.90;;;;;;5078103;28;20054;-86
2022/01/02 08:27:29;;;;;;;0.88;0.88;;;11.20;99.90;;;;;;5113713;28;20082;-85
2022/01/02 08:29:55;;;;;;;42.60;2.22;;;11.10;99.90;;;;;;5095593;28;20039;-84
2022/01/02 08:32:21;;;;;;;1.23;1.17;;;11.10;99.90;;;;;;5078558;28;20053;-82
2022/01/02 08:34:46;;;;;;;0.85;0.85;;;11.10;99.90;;;;;;5095222;28;20054;-83
2022/01/02 08:37:15;;;;;;;3.30;3.00;;;11.20;99.90;;;;;;5095453;28;20047;-85
2022/01/02 08:39:42;;;;;;;1.65;1.40;;;11.20;99.90;;;;;;5113218;28;20407;-85
2022/01/02 08:42:08;;;;;;;1.85;1.23;;;11.20;99.90;;;;;;5095612;28;20383;-83
2022/01/02 08:44:34;;;;;;;1.15;1.10;;;11.20;99.90;;;;;;5096026;28;20399;-85
2022/01/02 08:46:59;;;;;;;0.70;0.68;;;11.20;99.90;;;;;;5097170;28;20054;-85
2022/01/02 08:49:25;;;;;;;0.43;0.43;;;11.20;99.90;;;;;;5095178;28;20047;-80
2022/01/02 08:51:51;;;;;;;2.50;1.05;;;11.10;99.90;;;;;;5097543;28;20077;-82
2022/01/02 08:54:17;;;;;;;0.10;0.10;;;11.20;99.90;;;;;;5099354;28;20395;-85
2022/01/02 08:56:43;;;;;;;5.00;4.47;;;11.20;99.90;;;;;;5099244;28;20051;-85
2022/01/02 08:59:08;;;;;;;1.88;1.77;;;11.20;99.90;;;;;;5117643;28;20042;-84
2022/01/02 09:01:34;;;;;;;1.27;0.60;;;11.20;99.90;;;;;;5098760;28;20135;-85
2022/01/02 09:03:59;;;;;;;1.15;1.15;;;11.20;99.90;;;;;;5099291;28;20446;-86
2022/01/02 09:06:25;;;;;;;1.27;1.20;;;11.10;99.90;;;;;;5098926;28;20497;-82
2022/01/02 09:08:51;;;;;;;1.00;1.00;;;11.20;99.90;;;;;;5082468;28;20040;-84
2022/01/02 09:11:16;;;;;;;1.27;0.70;;;11.10;99.90;;;;;;5098881;28;20476;-84
2022/01/02 09:13:42;;;;;;;0.50;0.50;;;11.10;99.90;;;;;;5098880;28;20043;-83
2022/01/02 09:16:08;;;;;;;0.55;0.55;;;11.20;99.90;;;;;;5117434;28;20042;-83
2022/01/02 09:18:34;;;;;;;2.00;1.85;;;11.20;99.90;;;;;;5117310;28;20132;-83
2022/01/02 09:21:00;;;;;;;0.22;0.22;;;11.30;99.90;;;;;;5116704;28;20377;-83
2022/01/02 09:23:25;;;;;;;0.93;0.93;;;11.30;99.90;;;;;;5117604;28;20044;-81
2022/01/02 09:25:51;;;;;;;3.00;1.65;;;11.40;99.90;;;;;;5117278;28;20122;-85
2022/01/02 09:28:16;;;;;;;0.22;0.22;;;11.50;99.90;;;;;;5098737;28;20403;-86
2022/01/02 09:30:42;;;;;;;3.42;0.73;;;11.40;99.90;;;;;;5098637;28;20202;-85
2022/01/02 09:33:08;;;;;;;1.83;1.05;;;11.50;99.90;;;;;;5117095;28;20039;-84
2022/01/02 09:35:36;;;;;;;1.08;0.40;;;11.50;99.90;;;;;;5116915;28;20046;-85
2022/01/02 09:38:02;;;;;;;1.13;1.13;;;11.50;99.90;;;;;;5118428;28;20460;-85
2022/01/02 09:40:29;;;;;;;1.20;1.20;;;11.50;99.90;;;;;;5119118;28;20090;-84
2022/01/02 09:42:57;;;;;;;1.95;1.85;;;11.50;99.90;;;;;;5100120;28;20131;-85
2022/01/02 09:45:23;;;;;;;0.55;0.55;;;11.50;99.90;;;;;;5116839;28;20126;-86
2022/01/02 09:47:50;;;;;;;0.20;0.20;;;11.50;99.90;;;;;;5116706;28;20036;-86
2022/01/02 09:50:18;;;;;;;0.98;0.98;;;11.40;99.90;;;;;;5116315;28;20052;-82
2022/01/02 09:52:47;;;;;;;2.40;0.85;;;11.50;99.90;;;;;;5098150;28;20050;-84
2022/01/02 09:55:12;;;;;;;1.48;1.40;;;11.50;99.90;;;;;;5097924;28;20043;-86
2022/01/02 09:57:43;;;;;;;1.73;1.63;;;11.40;99.90;;;;;;5116463;28;20051;-84
2022/01/02 10:00:09;;;;;;;0.30;0.30;;;11.50;99.90;;;;;;5116273;28;20419;-87
2022/01/02 10:02:53;;;;;;;1.45;0.65;;;11.50;99.90;;;;;;5097510;28;20483;-87
2022/01/02 10:05:21;;;;;;;0.30;0.30;;;11.60;99.90;;;;;;5098102;28;20051;-87
2022/01/02 10:07:47;;;;;;;0.30;0.30;;;11.60;99.90;;;;;;5097988;28;20044;-87
2022/01/02 10:10:13;;;;;;;1.38;1.38;;;11.70;99.90;;;;;;5097984;28;20096;-86
2022/01/02 10:12:39;;;;;;;0.45;0.45;;;11.70;99.90;;;;;;5116312;28;20408;-87
2022/01/02 10:15:17;;;;;;;0.30;0.20;;;11.70;99.90;;;;;;5098279;28;20042;-87
2022/01/02 10:18:08;;;;;;;0.55;0.55;;;11.80;99.90;;;;;;5098319;28;20047;-87
2022/01/02 10:20:45;;;;;;;0.57;0.50;;;11.80;99.90;;;;;;5097965;28;20090;-87
2022/01/02 10:23:24;;;;;;;0.73;0.73;;;11.80;99.90;;;;;;5115783;28;20395;-87
2022/01/02 10:25:55;;;;;;;21.83;2.33;;;11.70;99.90;;;;;;5098143;28;20071;-87
2022/01/02 10:28:21;;;;;;;0.65;0.63;;;11.80;99.90;;;;;;5116111;28;20068;-89
2022/01/02 10:30:51;;;;;;;3.25;1.88;;;11.80;99.90;;;;;;5097997;28;20040;-88
2022/01/02 10:33:17;;;;;;;1.90;1.45;;;11.80;99.90;;;;;;5116160;28;20035;-87
2022/01/02 10:35:43;;;;;;;4.75;1.65;;;11.70;99.90;;;;;;5097902;28;20035;-88
2022/01/02 10:38:16;;;;;;;1.55;0.73;;;11.80;99.90;;;;;;5116214;28;20051;-88
2022/01/02 10:40:43;;;;;;;0.57;0.57;;;11.80;99.90;;;;;;5115939;28;20035;-88
2022/01/02 10:43:11;;;;;;;1.30;0.93;;;11.80;99.90;;;;;;5115990;28;20136;-87
2022/01/02 10:45:39;;;;;;;0.65;0.65;;;11.90;99.90;;;;;;5115873;28;20119;-87
2022/01/02 10:48:08;;;;;;;1.38;1.38;;;11.90;99.90;;;;;;5097949;28;20035;-88
2022/01/02 10:50:35;;;;;;;1.15;1.15;;;11.90;99.90;;;;;;5115902;28;20442;-88
2022/01/02 10:53:21;;;;;;;1.42;1.23;;;11.90;99.90;;;;;;5115744;28;20067;-88
2022/01/02 10:55:47;;;;;;;0.45;0.45;;;12.00;99.90;;;;;;5114950;28;20423;-88
2022/01/02 10:58:13;;;;;;;3.67;2.22;;;11.90;99.90;;;;;;5115448;28;20043;-87
2022/01/02 11:00:39;;;;;;;0.63;0.63;;;11.90;99.90;;;;;;5115081;28;20048;-88
2022/01/02 11:03:06;;;;;;;6.00;3.20;;;11.90;99.90;;;;;;5096996;28;20561;-87
2022/01/02 11:05:35;;;;;;;1.10;0.98;;;12.00;99.90;;;;;;5097017;28;20075;-88
2022/01/02 11:08:03;;;;;;;2.80;2.45;;;12.00;99.90;;;;;;5097318;28;20039;-86
2022/01/02 11:10:31;;;;;;;12.85;4.10;;;12.00;99.90;;;;;;5115624;28;20027;-89
2022/01/02 11:12:58;;;;;;;2.22;2.03;;;12.10;99.90;;;;;;5096725;28;20484;-87
2022/01/02 11:15:26;;;;;;;1.73;1.58;;;12.10;99.90;;;;;;5097154;28;20433;-88
2022/01/02 11:17:52;;;;;;;1.65;1.55;;;12.20;99.90;;;;;;5115208;28;20047;-88
2022/01/02 11:20:27;;;;;;;1.02;0.63;;;12.20;99.90;;;;;;5115584;28;20090;-88
2022/01/02 11:23:14;;;;;;;1.45;1.35;;;12.20;99.90;;;;;;5115435;28;20373;-89
2022/01/02 11:25:51;;;;;;;0.50;0.50;;;12.20;99.90;;;;;;5115585;28;20055;-87
2022/01/02 11:28:38;;;;;;;0.85;0.82;;;12.20;99.90;;;;;;5118474;28;20043;-88
2022/01/02 11:31:06;;;;;;;0.50;0.50;;;12.20;99.90;;;;;;5119203;28;20407;-87
2022/01/02 11:33:39;;;;;;;1.50;0.77;;;12.30;99.90;;;;;;5115456;28;20043;-78
2022/01/02 11:36:40;;;;;;;1.63;1.52;;;12.30;99.90;;;;;;5115142;28;20039;-87
2022/01/02 11:39:08;;;;;;;1.10;1.00;;;12.30;99.90;;;;;;5012638;28;20064;-87
2022/01/02 11:41:38;;;;;;;3.03;2.42;;;12.30;99.90;;;;;;5012564;28;20192;-88
2022/01/02 11:44:12;;;;;;;3.72;2.08;;;12.20;99.90;;;;;;5012354;28;20049;-87
2022/01/02 11:46:40;;;;;;;1.23;0.73;;;12.10;99.90;;;;;;5012427;28;20099;-87
2022/01/02 11:49:13;;;;;;;0.60;0.60;;;12.10;99.90;;;;;;5012257;28;20057;-85
2022/01/02 11:51:48;;;;;;;1.33;1.23;;;12.20;99.90;;;;;;4996240;28;20376;-85
2022/01/02 11:54:47;;;;;;;0.10;0.10;;;12.10;99.90;;;;;;5012315;28;20518;-86
2022/01/02 11:57:18;;;;;;;2.55;0.75;;;12.10;99.90;;;;;;4957287;28;20523;-86
2022/01/02 11:59:46;;;;;;;0.70;0.70;;;12.10;99.90;;;;;;4971827;28;20051;-88
2022/01/02 12:02:18;;;;;;;2.80;2.53;;;12.10;99.90;;;;;;4937713;29;20455;-87
2022/01/02 12:05:02;;;;;;;1.88;1.77;;;12.10;99.90;;;;;;4937764;29;20063;-87
2022/01/02 12:07:53;;;;;;;1.25;0.98;;;12.20;99.90;;;;;;4937433;29;20059;-86
2022/01/02 12:10:26;;;;;;;0.63;0.63;;;12.10;99.90;;;;;;4899766;29;20063;-88
2022/01/02 12:13:05;;;;;;;0.88;0.88;;;12.10;99.90;;;;;;4923391;28;20203;-87
2022/01/02 12:15:31;;;;;;;4.07;1.58;;;12.00;99.90;;;;;;4956741;28;20137;-87
2022/01/02 12:18:31;;;;;;;0.77;0.77;;;12.10;99.90;;;;;;4956386;28;20098;-88
2022/01/02 12:20:57;;;;;;;14.20;1.80;;;12.20;99.90;;;;;;4957499;28;20066;-88
2022/01/02 12:23:41;;;;;;;0.95;0.95;;;12.10;99.90;;;;;;4959014;28;20051;-87
2022/01/02 12:26:16;;;;;;;0.32;0.32;;;12.10;99.90;;;;;;4941476;28;20050;-87
2022/01/02 12:28:47;;;;;;;3.78;3.47;;;12.10;99.90;;;;;;4956927;28;20461;-88
2022/01/02 12:31:17;;;;;;;1.30;1.20;;;12.10;99.90;;;;;;4956640;28;20451;-87
2022/01/02 12:33:44;;;;;;;3.97;2.10;;;12.10;99.90;;;;;;4990493;28;20402;-87
2022/01/02 12:36:13;;;;;;;1.13;1.13;;;12.20;99.90;;;;;;4978761;28;20056;-86
2022/01/02 12:38:50;;;;;;;0.25;0.25;;;12.10;99.90;;;;;;5011459;28;20041;-85
2022/01/02 12:41:18;;;;;;;0.45;0.45;;;12.20;99.90;;;;;;4994873;28;20066;-88
2022/01/02 12:44:06;;;;;;;5.28;0.65;;;12.10;99.90;;;;;;4978793;28;20042;-87
2022/01/02 12:46:32;;;;;;;3.33;1.20;;;12.10;99.90;;;;;;5027421;28;20084;-88
2022/01/02 12:48:58;;;;;;;0.85;0.85;;;12.10;99.90;;;;;;5093445;28;20071;-88
2022/01/02 12:51:29;;;;;;;0.50;0.50;;;12.00;99.90;;;;;;5093273;28;20102;-86
2022/01/02 12:54:07;;;;;;;0.50;0.50;;;12.00;99.90;;;;;;5093538;28;20044;-87
2022/01/02 12:56:32;;;;;;;0.70;0.70;;;12.10;99.90;;;;;;5093501;28;20032;-88